Time;durP1;ratioP1;P1;durP2;ratioP2;P2;SDS_P1;SDS_P2;PMS_P1;PMS_P2;Temp;Humidity;BMP_temperature;BMP_pressure;BME280_temperature;BME280_humidity;BME280_pressure;Samples;Min_cycle;Max_cycle;Signal;HPM_P1;HPM_P2
2023/09/12 00:01:45;;;;;;;165.40;75.57;;;;;;;;;;5030377;28;20041;-63
2023/09/12 00:04:11;;;;;;;143.90;70.80;;;;;;;;;;5029575;28;20049;-63
2023/09/12 00:06:37;;;;;;;170.40;75.07;;;;;;;;;;5030208;28;20049;-63
2023/09/12 00:09:06;;;;;;;171.37;77.27;;;;;;;;;;5029650;28;20045;-63
2023/09/12 00:11:32;;;;;;;320.97;95.10;;;;;;;;;;5030078;28;20124;-63
2023/09/12 00:13:59;;;;;;;165.63;76.10;;;;;;;;;;5029659;28;20077;-63
2023/09/12 00:16:25;;;;;;;269.40;88.17;;;;;;;;;;5028680;28;20041;-63
2023/09/12 00:18:51;;;;;;;175.17;75.47;;;;;;;;;;5029650;28;20084;-63
2023/09/12 00:21:17;;;;;;;156.47;73.73;;;;;;;;;;5029722;28;20049;-64
2023/09/12 00:23:43;;;;;;;184.20;79.23;;;;;;;;;;5029598;28;20046;-63
2023/09/12 00:26:09;;;;;;;204.70;83.37;;;;;;;;;;5029593;28;20048;-63
2023/09/12 00:28:37;;;;;;;195.10;78.47;;;;;;;;;;5029536;28;20042;-63
2023/09/12 00:31:03;;;;;;;176.40;78.50;;;;;;;;;;5029418;28;20151;-63
2023/09/12 00:33:29;;;;;;;184.67;79.70;;;;;;;;;;5029447;28;20518;-63
2023/09/12 00:35:55;;;;;;;208.60;84.00;;;;;;;;;;5029158;28;20048;-63
2023/09/12 00:38:21;;;;;;;193.83;83.10;;;;;;;;;;5029151;28;20076;-63
2023/09/12 00:40:47;;;;;;;224.60;87.10;;;;;;;;;;5029494;28;20407;-64
2023/09/12 00:43:13;;;;;;;176.23;80.30;;;;;;;;;;5029301;28;20223;-63
2023/09/12 00:45:39;;;;;;;150.40;72.53;;;;;;;;;;5029531;28;20053;-64
2023/09/12 00:48:06;;;;;;;112.93;61.43;;;;;;;;;;5030433;28;20435;-63
2023/09/12 00:50:33;;;;;;;160.57;73.50;;;;;;;;;;5033411;28;20088;-64
2023/09/12 00:52:59;;;;;;;166.17;77.53;;;;;;;;;;5033309;28;20103;-63
2023/09/12 00:55:26;;;;;;;219.63;87.33;;;;;;;;;;5033520;28;20496;-64
2023/09/12 00:57:53;;;;;;;227.30;89.00;;;;;;;;;;5033545;28;20049;-64
2023/09/12 01:00:19;;;;;;;211.97;85.67;;;;;;;;;;5033097;28;20054;-65
2023/09/12 01:02:46;;;;;;;204.60;83.63;;;;;;;;;;5032402;28;20096;-64
2023/09/12 01:05:14;;;;;;;228.70;89.53;;;;;;;;;;5032517;28;20091;-63
2023/09/12 01:07:40;;;;;;;296.40;97.53;;;;;;;;;;5033207;28;20063;-63
2023/09/12 01:10:07;;;;;;;333.93;103.93;;;;;;;;;;5032175;28;20037;-63
2023/09/12 01:12:33;;;;;;;233.53;93.60;;;;;;;;;;5033681;28;20041;-63
2023/09/12 01:14:59;;;;;;;374.87;107.97;;;;;;;;;;5033125;28;20471;-64
2023/09/12 01:17:25;;;;;;;249.53;97.23;;;;;;;;;;5031991;28;20041;-64
2023/09/12 01:19:52;;;;;;;371.37;109.23;;;;;;;;;;5032655;28;20411;-63
2023/09/12 01:22:36;;;;;;;311.70;100.07;;;;;;;;;;5032589;28;20042;-64
2023/09/12 01:25:27;;;;;;;455.97;122.93;;;;;;;;;;5033030;28;20049;-64
2023/09/12 01:27:54;;;;;;;431.07;117.20;;;;;;;;;;5032902;28;20041;-63
2023/09/12 01:30:23;;;;;;;430.23;119.67;;;;;;;;;;5032673;28;20551;-63
2023/09/12 01:32:50;;;;;;;533.70;129.43;;;;;;;;;;5032932;28;20570;-63
2023/09/12 01:35:16;;;;;;;546.87;133.80;;;;;;;;;;5031950;28;20049;-63
2023/09/12 01:37:42;;;;;;;395.73;114.10;;;;;;;;;;5033251;28;20050;-63
2023/09/12 01:40:08;;;;;;;644.17;146.90;;;;;;;;;;5032678;28;20488;-63
2023/09/12 01:42:37;;;;;;;427.10;120.30;;;;;;;;;;5032678;28;20454;-62
2023/09/12 01:45:05;;;;;;;436.27;121.20;;;;;;;;;;5032599;28;20045;-63
2023/09/12 01:47:31;;;;;;;374.90;112.17;;;;;;;;;;5032508;28;20168;-63
2023/09/12 01:49:59;;;;;;;440.57;119.93;;;;;;;;;;5032319;28;20060;-63
2023/09/12 01:52:25;;;;;;;652.47;145.13;;;;;;;;;;5032297;28;20060;-63
2023/09/12 01:54:52;;;;;;;769.53;159.33;;;;;;;;;;5032554;28;20156;-63
2023/09/12 01:57:21;;;;;;;543.73;135.77;;;;;;;;;;5032403;28;20051;-63
2023/09/12 01:59:50;;;;;;;435.27;119.47;;;;;;;;;;5031255;28;20057;-63
2023/09/12 02:02:16;;;;;;;509.80;132.47;;;;;;;;;;5032547;28;20045;-63
2023/09/12 02:04:47;;;;;;;392.43;115.13;;;;;;;;;;5032245;28;20045;-63
2023/09/12 02:07:13;;;;;;;462.47;127.13;;;;;;;;;;5031908;28;20512;-63
2023/09/12 02:09:39;;;;;;;495.53;132.77;;;;;;;;;;5031350;28;20037;-63
2023/09/12 02:12:05;;;;;;;484.60;132.33;;;;;;;;;;5031990;28;20056;-63
2023/09/12 02:14:31;;;;;;;527.57;133.80;;;;;;;;;;5031760;28;20045;-63
2023/09/12 02:16:57;;;;;;;532.13;134.37;;;;;;;;;;5032346;28;20407;-63
2023/09/12 02:19:23;;;;;;;743.93;156.83;;;;;;;;;;5031786;28;20037;-63
2023/09/12 02:21:49;;;;;;;985.10;170.33;;;;;;;;;;5031967;28;20049;-63
2023/09/12 02:24:15;;;;;;;772.07;141.20;;;;;;;;;;5031606;28;20045;-63
2023/09/12 02:26:41;;;;;;;1352.33;186.23;;;;;;;;;;5031783;28;20507;-63
2023/09/12 02:29:09;;;;;;;836.03;144.00;;;;;;;;;;5031459;28;20053;-63
2023/09/12 02:31:35;;;;;;;782.07;134.67;;;;;;;;;;5031897;28;20106;-63
2023/09/12 02:34:01;;;;;;;981.10;158.30;;;;;;;;;;5031417;28;20049;-63
2023/09/12 02:36:28;;;;;;;1180.40;185.13;;;;;;;;;;5031688;28;20376;-63
2023/09/12 02:38:54;;;;;;;407.07;96.67;;;;;;;;;;5031724;28;20041;-63
2023/09/12 02:41:20;;;;;;;681.80;134.97;;;;;;;;;;5031566;28;20076;-63
2023/09/12 02:43:46;;;;;;;583.13;120.97;;;;;;;;;;5031135;28;20500;-63
2023/09/12 02:46:12;;;;;;;919.20;164.83;;;;;;;;;;5031276;28;20068;-63
2023/09/12 02:48:38;;;;;;;422.70;92.63;;;;;;;;;;5030998;28;20052;-63
2023/09/12 02:51:04;;;;;;;1035.33;177.50;;;;;;;;;;5031482;28;20125;-63
2023/09/12 02:53:30;;;;;;;204.13;69.47;;;;;;;;;;5030551;28;20055;-63
2023/09/12 02:55:56;;;;;;;807.27;145.83;;;;;;;;;;5030862;28;20128;-63
2023/09/12 02:58:22;;;;;;;1092.87;188.37;;;;;;;;;;5031122;28;20059;-63
2023/09/12 03:00:50;;;;;;;1062.30;177.50;;;;;;;;;;5030711;28;20041;-63
2023/09/12 03:03:16;;;;;;;978.73;169.37;;;;;;;;;;5030605;28;20045;-63
2023/09/12 03:05:42;;;;;;;690.20;138.40;;;;;;;;;;5031353;28;20128;-63
2023/09/12 03:08:08;;;;;;;1030.90;180.93;;;;;;;;;;5031162;28;20072;-63
2023/09/12 03:10:34;;;;;;;1038.87;188.30;;;;;;;;;;5031105;28;20447;-63
2023/09/12 03:13:00;;;;;;;1002.07;176.03;;;;;;;;;;5030943;28;20045;-63
2023/09/12 03:15:26;;;;;;;1011.87;174.40;;;;;;;;;;5031217;28;20056;-63
2023/09/12 03:17:52;;;;;;;1069.40;183.53;;;;;;;;;;5030737;28;20046;-63
2023/09/12 03:20:18;;;;;;;1219.10;197.60;;;;;;;;;;5030624;28;20677;-63
2023/09/12 03:22:46;;;;;;;696.57;143.27;;;;;;;;;;5030923;28;20045;-63
2023/09/12 03:25:12;;;;;;;892.73;166.67;;;;;;;;;;5030880;28;20049;-63
2023/09/12 03:27:38;;;;;;;1023.97;178.13;;;;;;;;;;5030970;28;20103;-63
2023/09/12 03:30:04;;;;;;;647.73;132.57;;;;;;;;;;5030587;28;20041;-63
2023/09/12 03:32:30;;;;;;;751.57;141.60;;;;;;;;;;5030496;28;20492;-63
2023/09/12 03:34:56;;;;;;;762.70;146.47;;;;;;;;;;5029211;28;20060;-63
2023/09/12 03:37:22;;;;;;;825.30;156.30;;;;;;;;;;5030753;28;20037;-63
2023/09/12 03:39:48;;;;;;;728.23;141.57;;;;;;;;;;5030045;28;20566;-63
2023/09/12 03:42:14;;;;;;;696.73;133.73;;;;;;;;;;5030694;28;20136;-63
2023/09/12 03:44:40;;;;;;;806.10;146.67;;;;;;;;;;5030461;28;20415;-63
2023/09/12 03:47:06;;;;;;;781.37;147.07;;;;;;;;;;5030286;28;20090;-63
2023/09/12 03:49:32;;;;;;;839.40;154.83;;;;;;;;;;5030115;28;20048;-63
2023/09/12 03:51:58;;;;;;;909.83;159.23;;;;;;;;;;5030528;28;20071;-63
2023/09/12 03:54:24;;;;;;;882.70;158.40;;;;;;;;;;5030416;28;20088;-63
2023/09/12 03:56:50;;;;;;;987.90;174.53;;;;;;;;;;5030475;28;20483;-63
2023/09/12 03:59:16;;;;;;;1004.50;172.67;;;;;;;;;;5030240;28;20049;-63
2023/09/12 04:01:42;;;;;;;988.23;166.90;;;;;;;;;;5029732;28;20179;-62
2023/09/12 04:04:08;;;;;;;865.37;154.03;;;;;;;;;;5029467;28;20045;-63
2023/09/12 04:06:34;;;;;;;1008.83;170.13;;;;;;;;;;5029680;28;20536;-63
2023/09/12 04:09:00;;;;;;;1130.63;175.00;;;;;;;;;;5029845;28;20381;-63
2023/09/12 04:11:26;;;;;;;1116.17;178.90;;;;;;;;;;5030370;28;20049;-63
2023/09/12 04:13:52;;;;;;;949.93;155.93;;;;;;;;;;5028678;28;20775;-63
2023/09/12 04:16:18;;;;;;;1061.37;172.60;;;;;;;;;;5029032;28;20048;-63
2023/09/12 04:18:45;;;;;;;619.57;119.53;;;;;;;;;;5028884;28;20044;-63
2023/09/12 04:21:10;;;;;;;1027.80;173.23;;;;;;;;;;5029079;28;20064;-63
2023/09/12 04:23:36;;;;;;;1135.00;178.73;;;;;;;;;;5027640;28;20500;-63
2023/09/12 04:26:03;;;;;;;849.83;144.73;;;;;;;;;;5029262;28;20041;-63
2023/09/12 04:28:29;;;;;;;1132.33;174.67;;;;;;;;;;5028760;28;20038;-63
2023/09/12 04:31:01;;;;;;;1179.93;187.77;;;;;;;;;;5026639;28;20029;-63
2023/09/12 04:33:27;;;;;;;1195.32;181.55;;;;;;;;;;5028342;28;20127;-63
2023/09/12 04:35:53;;;;;;;968.73;164.10;;;;;;;;;;5027602;28;20507;-63
2023/09/12 04:38:20;;;;;;;923.37;156.50;;;;;;;;;;5028391;28;20042;-63
2023/09/12 04:40:53;;;;;;;1052.27;172.37;;;;;;;;;;5028860;28;20136;-63
2023/09/12 04:43:19;;;;;;;391.93;88.37;;;;;;;;;;5020389;28;20146;-63
2023/09/12 04:45:45;;;;;;;904.57;151.70;;;;;;;;;;5020223;28;20399;-63
2023/09/12 04:48:11;;;;;;;870.93;150.63;;;;;;;;;;5028446;28;20156;-63
2023/09/12 04:50:42;;;;;;;987.37;161.13;;;;;;;;;;5028268;28;20112;-63
2023/09/12 04:53:08;;;;;;;1050.70;171.13;;;;;;;;;;5028920;28;20084;-63
2023/09/12 04:55:36;;;;;;;654.17;129.07;;;;;;;;;;5028144;28;20496;-63
2023/09/12 04:58:02;;;;;;;945.67;161.03;;;;;;;;;;5028669;28;20049;-63
2023/09/12 05:00:27;;;;;;;1041.90;174.67;;;;;;;;;;5028498;28;20107;-63
2023/09/12 05:02:53;;;;;;;860.50;155.93;;;;;;;;;;5028121;28;20045;-63
2023/09/12 05:05:20;;;;;;;1050.00;175.50;;;;;;;;;;5028329;28;20585;-63
2023/09/12 05:07:46;;;;;;;958.13;166.60;;;;;;;;;;5028205;28;20141;-63
2023/09/12 05:10:12;;;;;;;762.60;140.00;;;;;;;;;;5026814;28;20042;-63
2023/09/12 05:12:38;;;;;;;1098.00;176.70;;;;;;;;;;5021881;28;20041;-63
2023/09/12 05:15:04;;;;;;;1124.73;181.97;;;;;;;;;;5026504;28;20085;-63
2023/09/12 05:17:30;;;;;;;853.00;151.97;;;;;;;;;;5012533;28;20515;-63
2023/09/12 05:19:56;;;;;;;540.60;121.57;;;;;;;;;;5011967;28;20099;-63
2023/09/12 05:22:22;;;;;;;975.10;165.90;;;;;;;;;;5028400;28;20050;-63
2023/09/12 05:24:49;;;;;;;823.07;147.73;;;;;;;;;;5027737;28;20056;-63
2023/09/12 05:27:15;;;;;;;855.43;150.57;;;;;;;;;;5028537;28;20221;-64
2023/09/12 05:29:41;;;;;;;886.20;158.50;;;;;;;;;;5026945;28;20111;-63
2023/09/12 05:32:07;;;;;;;690.07;138.33;;;;;;;;;;5010333;28;20046;-63
2023/09/12 05:34:33;;;;;;;646.17;136.93;;;;;;;;;;5009241;28;20068;-63
2023/09/12 05:36:59;;;;;;;921.87;158.10;;;;;;;;;;5022943;28;20041;-63
2023/09/12 05:39:25;;;;;;;1033.77;167.47;;;;;;;;;;5028899;28;20476;-63
2023/09/12 05:41:51;;;;;;;616.87;130.47;;;;;;;;;;5035964;28;20081;-63
2023/09/12 05:44:18;;;;;;;891.47;161.13;;;;;;;;;;5025999;28;20058;-63
2023/09/12 05:46:47;;;;;;;1008.93;163.23;;;;;;;;;;5010846;28;20046;-63
2023/09/12 05:49:14;;;;;;;1186.07;183.60;;;;;;;;;;5047394;28;20411;-64
2023/09/12 05:51:40;;;;;;;1071.73;173.60;;;;;;;;;;5049058;28;20037;-63
2023/09/12 05:54:06;;;;;;;702.23;136.67;;;;;;;;;;5044170;28;20335;-63
2023/09/12 05:56:32;;;;;;;930.53;155.73;;;;;;;;;;5031026;28;20135;-63
2023/09/12 05:58:58;;;;;;;703.17;139.63;;;;;;;;;;5030400;28;20149;-63
2023/09/12 06:01:24;;;;;;;549.80;122.33;;;;;;;;;;5031281;28;20033;-63
2023/09/12 06:03:50;;;;;;;360.27;95.43;;;;;;;;;;5046759;28;20376;-63
2023/09/12 06:06:16;;;;;;;464.70;116.20;;;;;;;;;;5050823;28;20041;-64
2023/09/12 06:08:42;;;;;;;472.17;107.87;;;;;;;;;;5043877;28;20045;-63
2023/09/12 06:11:08;;;;;;;367.60;97.77;;;;;;;;;;5047871;28;20044;-63
2023/09/12 06:13:37;;;;;;;415.50;103.83;;;;;;;;;;5012792;28;20121;-63
2023/09/12 06:16:03;;;;;;;252.87;80.83;;;;;;;;;;5037266;28;20513;-63
2023/09/12 06:18:31;;;;;;;280.70;86.57;;;;;;;;;;5023498;28;20404;-63
2023/09/12 06:20:57;;;;;;;378.67;100.30;;;;;;;;;;5010940;28;20054;-64
2023/09/12 06:23:23;;;;;;;353.87;95.10;;;;;;;;;;5035324;28;20052;-63
2023/09/12 06:25:49;;;;;;;348.70;98.10;;;;;;;;;;5037514;28;20060;-64
2023/09/12 06:28:24;;;;;;;239.87;83.00;;;;;;;;;;5030356;28;20041;-63
2023/09/12 06:30:50;;;;;;;132.33;60.70;;;;;;;;;;5046217;28;20041;-63
2023/09/12 06:33:16;;;;;;;261.97;82.30;;;;;;;;;;5046214;28;20067;-63
2023/09/12 06:35:42;;;;;;;341.90;94.67;;;;;;;;;;5039420;28;20049;-63
2023/09/12 06:38:08;;;;;;;309.70;89.10;;;;;;;;;;5045551;28;20052;-63
2023/09/12 06:40:34;;;;;;;258.80;82.67;;;;;;;;;;5048724;28;20088;-63
2023/09/12 06:43:00;;;;;;;352.20;94.37;;;;;;;;;;5048360;28;20814;-63
2023/09/12 06:45:26;;;;;;;190.50;69.40;;;;;;;;;;5050251;28;20072;-63
2023/09/12 06:47:52;;;;;;;401.97;99.50;;;;;;;;;;5048926;28;20458;-63
2023/09/12 06:50:18;;;;;;;357.17;93.47;;;;;;;;;;5050665;28;20037;-63
2023/09/12 06:52:44;;;;;;;286.20;79.83;;;;;;;;;;5042622;28;20093;-63
2023/09/12 06:55:10;;;;;;;302.37;85.63;;;;;;;;;;5049875;28;20091;-63
2023/09/12 06:57:36;;;;;;;243.57;77.87;;;;;;;;;;5035552;28;20061;-62
2023/09/12 07:00:06;;;;;;;264.97;81.63;;;;;;;;;;5029806;28;20184;-62
2023/09/12 07:02:32;;;;;;;184.23;68.30;;;;;;;;;;5028657;28;20651;-62
2023/09/12 07:04:58;;;;;;;214.70;71.63;;;;;;;;;;5033482;28;20099;-62
2023/09/12 07:07:24;;;;;;;281.13;85.23;;;;;;;;;;5049441;28;20048;-62
2023/09/12 07:09:50;;;;;;;229.47;76.30;;;;;;;;;;5049012;28;20443;-62
2023/09/12 07:12:16;;;;;;;302.27;81.03;;;;;;;;;;5049307;28;20095;-63
2023/09/12 07:14:42;;;;;;;246.97;79.07;;;;;;;;;;5048369;28;20071;-62
2023/09/12 07:17:08;;;;;;;237.73;80.70;;;;;;;;;;5049579;28;20041;-62
2023/09/12 07:19:35;;;;;;;249.27;82.03;;;;;;;;;;5043291;28;20057;-62
2023/09/12 07:22:01;;;;;;;189.30;72.60;;;;;;;;;;5048863;28;20115;-62
2023/09/12 07:24:27;;;;;;;162.27;66.27;;;;;;;;;;5047821;28;20495;-62
2023/09/12 07:26:53;;;;;;;203.37;74.33;;;;;;;;;;5048827;28;20041;-62
2023/09/12 07:29:19;;;;;;;210.97;77.17;;;;;;;;;;5048368;28;20419;-62
2023/09/12 07:31:45;;;;;;;204.50;74.07;;;;;;;;;;5047823;28;20045;-62
2023/09/12 07:34:14;;;;;;;187.93;71.83;;;;;;;;;;5049210;28;20044;-62
2023/09/12 07:36:40;;;;;;;174.00;67.43;;;;;;;;;;5044790;28;20106;-62
2023/09/12 07:39:06;;;;;;;154.07;69.20;;;;;;;;;;5045722;28;20480;-62
2023/09/12 07:41:32;;;;;;;133.80;64.73;;;;;;;;;;5035384;28;20404;-62
2023/09/12 07:44:01;;;;;;;164.80;70.47;;;;;;;;;;5045113;28;20040;-61
2023/09/12 07:46:27;;;;;;;150.67;66.57;;;;;;;;;;5034375;28;20099;-61
2023/09/12 07:48:53;;;;;;;135.87;61.77;;;;;;;;;;5029675;28;20049;-61
2023/09/12 07:51:19;;;;;;;118.37;57.93;;;;;;;;;;5039882;28;20491;-62
2023/09/12 07:53:45;;;;;;;144.03;64.27;;;;;;;;;;5030291;28;20040;-62
2023/09/12 07:56:11;;;;;;;145.87;66.90;;;;;;;;;;5047185;28;20049;-61
2023/09/12 07:58:37;;;;;;;134.90;62.73;;;;;;;;;;5037314;28;20083;-61
2023/09/12 08:01:09;;;;;;;126.50;60.93;;;;;;;;;;5028553;28;20037;-61
2023/09/12 08:03:36;;;;;;;105.80;58.20;;;;;;;;;;5041005;28;20397;-61
2023/09/12 08:06:02;;;;;;;127.63;61.90;;;;;;;;;;5022356;28;20041;-61
2023/09/12 08:08:28;;;;;;;108.13;58.43;;;;;;;;;;5028345;28;20041;-61
2023/09/12 08:10:54;;;;;;;104.23;58.43;;;;;;;;;;5019759;28;20056;-61
2023/09/12 08:13:20;;;;;;;102.90;56.97;;;;;;;;;;5028891;28;20038;-61
2023/09/12 08:15:46;;;;;;;109.83;60.90;;;;;;;;;;5023460;28;20719;-61
2023/09/12 08:18:12;;;;;;;144.60;62.57;;;;;;;;;;5013553;28;20831;-61
2023/09/12 08:20:38;;;;;;;112.43;57.10;;;;;;;;;;5023230;28;20389;-61
2023/09/12 08:23:05;;;;;;;128.70;60.00;;;;;;;;;;5028601;28;20052;-61
2023/09/12 08:25:31;;;;;;;144.00;62.83;;;;;;;;;;5028242;28;20574;-61
2023/09/12 08:27:56;;;;;;;128.00;60.87;;;;;;;;;;5028505;28;20049;-61
2023/09/12 08:30:22;;;;;;;116.07;57.40;;;;;;;;;;5028298;28;20678;-61
2023/09/12 08:32:48;;;;;;;121.10;57.90;;;;;;;;;;5028204;28;20615;-61
2023/09/12 08:35:15;;;;;;;113.73;59.87;;;;;;;;;;5028483;28;20087;-61
2023/09/12 08:37:42;;;;;;;115.80;59.43;;;;;;;;;;5028630;28;20041;-61
2023/09/12 08:40:08;;;;;;;106.40;57.50;;;;;;;;;;5028041;28;20800;-62
2023/09/12 08:42:42;;;;;;;100.10;55.47;;;;;;;;;;5027954;28;20046;-62
2023/09/12 08:45:15;;;;;;;98.93;56.57;;;;;;;;;;5028454;28;20083;-62
2023/09/12 08:47:42;;;;;;;77.47;50.28;;;;;;;;;;5028209;28;21465;-61
2023/09/12 08:50:10;;;;;;;78.27;48.93;;;;;;;;;;5028483;28;20096;-61
2023/09/12 08:52:36;;;;;;;66.77;45.27;;;;;;;;;;5028874;28;20049;-61
2023/09/12 08:55:04;;;;;;;61.53;44.30;;;;;;;;;;5025969;28;20065;-61
2023/09/12 08:57:30;;;;;;;57.47;42.20;;;;;;;;;;5026450;28;20408;-62
2023/09/12 08:59:56;;;;;;;58.77;42.07;;;;;;;;;;5024989;28;20041;-61
2023/09/12 09:02:23;;;;;;;52.80;38.23;;;;;;;;;;5027206;28;20060;-62
2023/09/12 09:04:49;;;;;;;51.93;41.10;;;;;;;;;;5027259;28;20381;-61
2023/09/12 09:07:16;;;;;;;48.23;36.27;;;;;;;;;;5026937;28;20052;-61
2023/09/12 09:09:43;;;;;;;50.00;39.57;;;;;;;;;;5030389;28;20076;-61
2023/09/12 09:12:10;;;;;;;52.17;39.43;;;;;;;;;;5031144;28;20044;-61
2023/09/12 09:14:36;;;;;;;47.97;37.20;;;;;;;;;;5031193;28;20111;-61
2023/09/12 09:17:02;;;;;;;49.43;37.93;;;;;;;;;;5031930;28;20111;-61
2023/09/12 09:19:41;;;;;;;51.47;39.63;;;;;;;;;;5031261;28;20037;-60
2023/09/12 09:22:07;;;;;;;46.90;36.70;;;;;;;;;;5031168;28;20583;-58
2023/09/12 09:24:33;;;;;;;48.10;39.13;;;;;;;;;;5030699;28;20076;-58
2023/09/12 09:27:00;;;;;;;38.73;33.13;;;;;;;;;;5030517;28;20073;-58
2023/09/12 09:29:31;;;;;;;35.47;31.70;;;;;;;;;;5027064;28;20052;-58
2023/09/12 09:31:57;;;;;;;41.08;36.60;;;;;;;;;;5030772;28;20037;-59
2023/09/12 09:34:24;;;;;;;43.25;36.78;;;;;;;;;;5030064;28;20132;-59
2023/09/12 09:36:51;;;;;;;41.80;36.78;;;;;;;;;;5031163;28;20049;-59
2023/09/12 09:39:18;;;;;;;42.00;34.92;;;;;;;;;;5031955;28;20040;-59
2023/09/12 09:41:48;;;;;;;37.70;33.70;;;;;;;;;;5030925;28;20085;-59
2023/09/12 09:44:15;;;;;;;38.60;33.67;;;;;;;;;;5034113;28;20053;-59
2023/09/12 09:46:43;;;;;;;36.20;31.85;;;;;;;;;;5030304;28;20041;-59
2023/09/12 09:49:16;;;;;;;39.55;35.30;;;;;;;;;;5031221;28;20042;-60
2023/09/12 09:51:43;;;;;;;36.38;32.50;;;;;;;;;;5029565;28;20051;-60
2023/09/12 09:54:09;;;;;;;36.70;32.20;;;;;;;;;;5030459;28;20056;-59
2023/09/12 09:56:53;;;;;;;34.75;30.95;;;;;;;;;;5030725;28;20073;-59
2023/09/12 09:59:21;;;;;;;34.63;30.58;;;;;;;;;;5029949;28;20037;-59
2023/09/12 10:01:48;;;;;;;30.95;27.65;;;;;;;;;;5030285;28;20479;-59
2023/09/12 10:04:15;;;;;;;32.03;28.75;;;;;;;;;;5030288;28;20155;-58
2023/09/12 10:06:43;;;;;;;33.42;29.98;;;;;;;;;;5030660;28;20052;-59
2023/09/12 10:09:11;;;;;;;32.47;28.63;;;;;;;;;;5030019;28;20127;-59
2023/09/12 10:11:38;;;;;;;33.03;28.45;;;;;;;;;;5030311;28;20053;-60
2023/09/12 10:14:05;;;;;;;31.77;28.77;;;;;;;;;;5030528;28;20051;-59
2023/09/12 10:16:31;;;;;;;30.60;27.35;;;;;;;;;;5029593;28;20167;-59
2023/09/12 10:19:15;;;;;;;27.02;24.05;;;;;;;;;;5030282;28;20129;-58
2023/09/12 10:21:55;;;;;;;29.38;26.17;;;;;;;;;;5028035;28;20045;-58
2023/09/12 10:24:22;;;;;;;28.33;25.33;;;;;;;;;;5029122;28;20464;-58
2023/09/12 10:26:50;;;;;;;25.13;22.17;;;;;;;;;;5028524;28;20065;-59
2023/09/12 10:29:16;;;;;;;26.33;23.60;;;;;;;;;;5029391;28;20044;-59
2023/09/12 10:31:42;;;;;;;26.52;22.80;;;;;;;;;;5029950;28;20053;-59
2023/09/12 10:34:10;;;;;;;23.40;20.98;;;;;;;;;;5032023;28;20033;-59
2023/09/12 10:36:40;;;;;;;23.88;21.30;;;;;;;;;;5028847;28;20142;-59
2023/09/12 10:39:07;;;;;;;24.63;21.92;;;;;;;;;;5030341;28;20087;-59
2023/09/12 10:41:33;;;;;;;23.30;20.55;;;;;;;;;;5029927;28;20058;-59
2023/09/12 10:43:59;;;;;;;25.25;22.52;;;;;;;;;;5030505;28;20136;-58
2023/09/12 10:46:25;;;;;;;24.17;21.50;;;;;;;;;;5030117;28;20091;-59
2023/09/12 10:48:52;;;;;;;26.23;22.90;;;;;;;;;;5028774;28;20416;-59
2023/09/12 10:51:19;;;;;;;22.88;20.58;;;;;;;;;;5029120;28;20617;-59
2023/09/12 10:53:48;;;;;;;24.98;22.20;;;;;;;;;;5030442;28;20049;-59
2023/09/12 10:56:15;;;;;;;23.08;20.88;;;;;;;;;;5029656;28;20413;-59
2023/09/12 10:59:01;;;;;;;23.08;20.88;;;;;;;;;;5029412;28;20053;-59
2023/09/12 11:01:27;;;;;;;24.40;22.08;;;;;;;;;;5030022;28;20073;-59
2023/09/12 11:03:53;;;;;;;23.58;21.38;;;;;;;;;;5029956;28;20045;-59
2023/09/12 11:06:29;;;;;;;23.85;21.48;;;;;;;;;;5030534;28;20388;-59
2023/09/12 11:09:17;;;;;;;26.45;23.65;;;;;;;;;;5029396;28;20046;-59
2023/09/12 11:12:08;;;;;;;24.40;22.13;;;;;;;;;;5029383;28;20167;-59
2023/09/12 11:14:34;;;;;;;24.55;22.23;;;;;;;;;;5026298;28;20095;-59
2023/09/12 11:17:10;;;;;;;21.40;19.08;;;;;;;;;;5030014;28;20472;-59
2023/09/12 11:19:49;;;;;;;21.98;17.63;;;;;;;;;;5030049;28;20045;-59
2023/09/12 11:22:41;;;;;;;24.95;20.20;;;;;;;;;;5028678;28;20053;-60
2023/09/12 11:25:19;;;;;;;25.27;22.73;;;;;;;;;;5008111;28;20501;-59
2023/09/12 11:27:46;;;;;;;22.63;20.42;;;;;;;;;;5009936;28;20054;-59
2023/09/12 11:30:13;;;;;;;22.88;20.50;;;;;;;;;;5009522;28;20100;-59
2023/09/12 11:32:39;;;;;;;21.33;19.13;;;;;;;;;;5027115;28;20045;-59
2023/09/12 11:35:06;;;;;;;23.40;19.63;;;;;;;;;;5029426;28;20049;-60
2023/09/12 11:37:33;;;;;;;20.95;18.75;;;;;;;;;;5029559;28;20140;-59
2023/09/12 11:39:59;;;;;;;19.85;17.15;;;;;;;;;;5029072;28;20053;-59
2023/09/12 11:42:25;;;;;;;19.35;17.35;;;;;;;;;;5029794;28;20053;-59
2023/09/12 11:44:52;;;;;;;21.05;18.95;;;;;;;;;;5028950;28;20392;-60
2023/09/12 11:47:18;;;;;;;19.88;17.98;;;;;;;;;;5029362;28;20043;-60
2023/09/12 11:49:45;;;;;;;19.42;17.33;;;;;;;;;;5028428;28;20077;-60
2023/09/12 11:52:16;;;;;;;18.92;16.90;;;;;;;;;;5029530;28;20408;-60
2023/09/12 11:54:42;;;;;;;20.52;18.42;;;;;;;;;;5028910;28;20049;-60
2023/09/12 11:57:09;;;;;;;21.05;18.95;;;;;;;;;;5028086;28;20052;-61
2023/09/12 11:59:39;;;;;;;18.73;16.20;;;;;;;;;;5028748;28;20057;-61
2023/09/12 12:02:10;;;;;;;18.55;15.18;;;;;;;;;;5027832;28;20053;-60
2023/09/12 12:04:36;;;;;;;17.48;15.65;;;;;;;;;;5029211;28;20081;-61
2023/09/12 12:07:06;;;;;;;14.90;13.20;;;;;;;;;;5028584;28;20041;-61
2023/09/12 12:09:32;;;;;;;17.60;15.82;;;;;;;;;;5028733;28;20084;-61
2023/09/12 12:12:04;;;;;;;18.95;16.95;;;;;;;;;;5027885;28;20084;-61
2023/09/12 12:14:34;;;;;;;18.17;16.30;;;;;;;;;;5028266;28;20479;-61
2023/09/12 12:17:05;;;;;;;15.70;13.43;;;;;;;;;;5028466;28;20040;-61
2023/09/12 12:19:31;;;;;;;15.15;13.60;;;;;;;;;;5028187;28;20052;-61
2023/09/12 12:21:57;;;;;;;14.60;13.00;;;;;;;;;;5027913;28;20042;-61
2023/09/12 12:24:23;;;;;;;13.70;10.52;;;;;;;;;;5027911;28;20041;-61
2023/09/12 12:26:49;;;;;;;14.65;11.00;;;;;;;;;;5028748;28;20867;-61
2023/09/12 12:29:15;;;;;;;18.23;11.65;;;;;;;;;;5028400;28;20045;-61
2023/09/12 12:31:41;;;;;;;13.40;11.88;;;;;;;;;;5028369;28;20053;-61
2023/09/12 12:34:07;;;;;;;13.18;11.85;;;;;;;;;;5028185;28;20212;-61
2023/09/12 12:36:33;;;;;;;12.57;11.27;;;;;;;;;;5028459;28;20042;-61
2023/09/12 12:39:00;;;;;;;13.50;9.95;;;;;;;;;;5027102;28;20048;-61
2023/09/12 12:41:30;;;;;;;9.65;7.95;;;;;;;;;;5026813;28;20057;-61
2023/09/12 12:44:03;;;;;;;10.32;8.48;;;;;;;;;;5028113;28;20068;-61
2023/09/12 12:46:29;;;;;;;9.57;8.52;;;;;;;;;;5028583;28;20132;-61
2023/09/12 12:48:55;;;;;;;10.82;7.57;;;;;;;;;;5027125;28;20392;-61
2023/09/12 12:51:22;;;;;;;13.50;8.15;;;;;;;;;;5028596;28;20053;-61
2023/09/12 12:53:53;;;;;;;10.27;6.43;;;;;;;;;;5027372;28;20064;-61
2023/09/12 12:56:20;;;;;;;11.32;7.20;;;;;;;;;;5028405;28;20045;-61
2023/09/12 12:58:49;;;;;;;8.80;7.13;;;;;;;;;;5027954;28;20503;-61
2023/09/12 13:01:16;;;;;;;7.80;5.72;;;;;;;;;;5028187;28;20096;-61
2023/09/12 13:03:42;;;;;;;10.20;5.10;;;;;;;;;;5028247;28;20412;-61
2023/09/12 13:06:13;;;;;;;7.85;5.35;;;;;;;;;;5028509;28;20041;-61
2023/09/12 13:08:40;;;;;;;9.10;6.35;;;;;;;;;;5027896;28;20561;-61
2023/09/12 13:11:06;;;;;;;11.60;6.93;;;;;;;;;;5028017;28;20054;-61
2023/09/12 13:13:32;;;;;;;7.70;6.30;;;;;;;;;;5028352;28;20526;-62
2023/09/12 13:15:58;;;;;;;9.15;7.28;;;;;;;;;;5028039;28;20049;-61
2023/09/12 13:18:24;;;;;;;9.57;6.60;;;;;;;;;;5027795;28;20052;-62
2023/09/12 13:20:50;;;;;;;10.10;7.65;;;;;;;;;;5027560;28;20037;-61
2023/09/12 13:23:16;;;;;;;11.23;6.60;;;;;;;;;;5027467;28;20179;-61
2023/09/12 13:25:42;;;;;;;9.05;7.22;;;;;;;;;;5028250;28;20046;-61
2023/09/12 13:28:08;;;;;;;11.20;7.15;;;;;;;;;;5027209;28;20072;-61
2023/09/12 13:30:34;;;;;;;7.90;5.75;;;;;;;;;;5028060;28;20041;-61
2023/09/12 13:33:00;;;;;;;6.82;5.97;;;;;;;;;;5027928;28;20474;-61
2023/09/12 13:35:26;;;;;;;8.60;5.60;;;;;;;;;;5027877;28;20045;-61
2023/09/12 13:37:52;;;;;;;8.93;6.78;;;;;;;;;;5027561;28;20052;-62
2023/09/12 13:40:18;;;;;;;9.63;5.63;;;;;;;;;;5026344;28;20058;-62
2023/09/12 13:42:44;;;;;;;10.23;6.43;;;;;;;;;;5029720;28;20085;-62
2023/09/12 13:45:10;;;;;;;8.30;5.43;;;;;;;;;;5028977;28;20762;-62
2023/09/12 13:47:37;;;;;;;10.13;6.15;;;;;;;;;;5025718;28;20045;-62
2023/09/12 13:50:03;;;;;;;7.90;6.20;;;;;;;;;;5026308;28;20393;-62
2023/09/12 13:52:30;;;;;;;5.95;5.32;;;;;;;;;;5022385;28;20046;-62
2023/09/12 13:54:56;;;;;;;8.10;6.18;;;;;;;;;;5027469;28;20046;-61
2023/09/12 13:57:22;;;;;;;9.18;6.40;;;;;;;;;;5032082;28;20129;-61
2023/09/12 13:59:48;;;;;;;7.72;6.05;;;;;;;;;;5032740;28;20046;-61
2023/09/12 14:02:15;;;;;;;9.30;7.90;;;;;;;;;;5031071;28;20050;-61
2023/09/12 14:04:41;;;;;;;10.60;8.07;;;;;;;;;;5031242;28;20236;-61
2023/09/12 14:07:07;;;;;;;12.50;8.48;;;;;;;;;;5030917;28;20092;-61